createdAt,value
2019-03-06T00:01:18.142Z,99374.03
2019-03-06T00:04:23.289Z,99372.22
2019-03-06T00:07:28.591Z,99365.09
2019-03-06T00:10:36.476Z,99360.77
2019-03-06T00:13:41.726Z,99356.45
2019-03-06T00:16:46.866Z,99355.00
2019-03-06T00:19:52.152Z,99359.14
2019-03-06T00:22:57.309Z,99358.55
2019-03-06T00:26:02.544Z,99353.92
2019-03-06T00:29:07.882Z,99351.42
2019-03-06T00:32:13.302Z,99349.62
2019-03-06T00:35:22.410Z,99342.47
2019-03-06T00:38:27.517Z,99343.91
2019-03-06T00:41:41.113Z,99347.08
2019-03-06T00:44:47.315Z,99353.89
2019-03-06T00:47:52.584Z,99347.32
2019-03-06T00:50:57.710Z,99341.89
2019-03-06T00:54:02.979Z,99340.83
2019-03-06T00:57:08.128Z,99341.61
2019-03-06T01:00:14.523Z,99338.63
2019-03-06T01:03:20.213Z,99344.23
2019-03-06T01:06:26.654Z,99339.06
2019-03-06T01:09:31.871Z,99335.50
2019-03-06T01:12:37.022Z,99337.27
2019-03-06T01:15:42.142Z,99342.27
2019-03-06T01:18:47.363Z,99343.37
2019-03-06T01:21:52.537Z,99337.89
2019-03-06T01:24:57.708Z,99332.30
2019-03-06T01:28:03.832Z,99318.30
2019-03-06T01:31:09.052Z,99319.98
2019-03-06T01:34:33.269Z,99317.00
2019-03-06T01:37:50.253Z,99323.97
2019-03-06T01:41:01.472Z,99309.97
2019-03-06T01:44:14.189Z,99312.47
2019-03-06T01:47:19.379Z,99311.96
2019-03-06T01:50:24.518Z,99305.25
2019-03-06T01:53:29.629Z,99296.45
2019-03-06T01:56:34.849Z,99305.61
2019-03-06T01:59:39.937Z,99302.73
2019-03-06T02:02:45.107Z,99300.38
2019-03-06T02:05:50.241Z,99299.05
2019-03-06T02:08:55.380Z,99293.03
2019-03-06T02:12:00.652Z,99286.34
2019-03-06T02:15:06.462Z,99279.10
2019-03-06T02:18:11.884Z,99279.99
2019-03-06T02:21:17.029Z,99271.60
2019-03-06T02:24:22.338Z,99276.83
2019-03-06T02:27:27.469Z,99282.69
2019-03-06T02:30:32.710Z,99272.72
2019-03-06T02:33:37.855Z,99260.66
2019-03-06T02:36:43.075Z,99258.40
2019-03-06T02:39:48.209Z,99257.69
2019-03-06T02:42:53.291Z,99252.72
2019-03-06T02:45:58.427Z,99252.41
2019-03-06T02:49:03.652Z,99257.31
2019-03-06T02:52:09.023Z,99258.80
2019-03-06T02:55:15.141Z,99252.96
2019-03-06T02:58:23.883Z,99248.72
2019-03-06T03:01:53.867Z,99244.20
2019-03-06T03:05:11.086Z,99249.57
2019-03-06T03:08:16.206Z,99251.23
2019-03-06T03:11:21.679Z,99251.80
2019-03-06T03:14:26.917Z,99254.47
2019-03-06T03:17:32.079Z,99237.23
2019-03-06T03:20:37.162Z,99232.29
2019-03-06T03:23:43.920Z,99229.88
2019-03-06T03:26:49.107Z,99228.89
2019-03-06T03:29:54.268Z,99223.94
2019-03-06T03:32:59.467Z,99209.66
2019-03-06T03:36:04.588Z,99207.03
2019-03-06T03:39:09.957Z,99217.56
2019-03-06T03:42:15.170Z,99220.30
2019-03-06T03:45:20.448Z,99200.00
2019-03-06T03:48:25.588Z,99198.08
2019-03-06T03:51:30.699Z,99205.30
2019-03-06T03:54:36.889Z,99184.82
2019-03-06T03:57:41.979Z,99188.47
2019-03-06T04:00:47.129Z,99196.08
2019-03-06T04:03:52.441Z,99197.53
2019-03-06T04:06:57.714Z,99199.77
2019-03-06T04:10:02.831Z,99189.27
2019-03-06T04:13:08.006Z,99193.46
2019-03-06T04:16:13.169Z,99190.44
2019-03-06T04:19:18.291Z,99195.41
2019-03-06T04:22:23.403Z,99189.27
2019-03-06T04:25:28.562Z,99174.29
2019-03-06T04:28:33.661Z,99178.00
2019-03-06T04:31:38.877Z,99171.20
2019-03-06T04:34:43.975Z,99187.80
2019-03-06T04:37:49.134Z,99180.63
2019-03-06T04:40:54.431Z,99172.47
2019-03-06T04:43:59.566Z,99158.77
2019-03-06T04:47:04.749Z,99166.84
2019-03-06T04:50:10.178Z,99155.92
2019-03-06T04:53:16.405Z,99156.05
2019-03-06T04:56:22.689Z,99167.17
2019-03-06T04:59:27.831Z,99169.81
2019-03-06T05:02:33.013Z,99170.77
2019-03-06T05:05:39.257Z,99169.13
2019-03-06T05:08:44.470Z,99159.84
2019-03-06T05:11:49.681Z,99151.68
2019-03-06T05:14:54.784Z,99149.16
2019-03-06T05:18:09.217Z,99156.11
2019-03-06T05:21:14.418Z,99158.62
2019-03-06T05:24:19.598Z,99154.43
2019-03-06T05:27:24.736Z,99148.52
2019-03-06T05:30:30.105Z,99146.75
2019-03-06T05:33:35.342Z,99154.73
2019-03-06T05:37:22.372Z,99152.88
2019-03-06T05:40:27.593Z,99146.73
2019-03-06T05:43:32.734Z,99128.00
2019-03-06T05:46:37.946Z,99131.91
2019-03-06T05:49:43.067Z,99132.14
2019-03-06T05:52:48.188Z,99131.80
2019-03-06T05:55:53.322Z,99124.83
2019-03-06T05:58:58.471Z,99128.97
2019-03-06T06:02:03.568Z,99131.31
2019-03-06T06:05:10.767Z,99133.83
2019-03-06T06:08:15.969Z,99123.91
2019-03-06T06:11:21.130Z,99129.61
2019-03-06T06:14:26.247Z,99112.70
2019-03-06T06:17:31.347Z,99107.78
2019-03-06T06:20:36.506Z,99112.56
2019-03-06T06:24:02.935Z,99100.75
2019-03-06T06:27:08.126Z,99104.03
2019-03-06T06:30:13.807Z,99098.50
2019-03-06T06:33:19.129Z,99100.41
2019-03-06T06:36:24.233Z,99094.47
2019-03-06T06:39:29.440Z,99085.13
2019-03-06T06:42:34.629Z,99084.44
2019-03-06T06:45:39.743Z,99085.20
2019-03-06T06:48:44.881Z,99076.39
2019-03-06T06:52:21.119Z,99068.52
2019-03-06T06:55:53.447Z,99071.70
2019-03-06T06:59:40.825Z,99071.48
2019-03-06T07:03:40.622Z,99066.25
2019-03-06T07:07:07.600Z,99051.83
2019-03-06T07:10:46.857Z,99057.36
2019-03-06T07:14:17.708Z,99049.45
2019-03-06T07:17:40.011Z,99041.70
2019-03-06T07:21:03.280Z,99045.19
2019-03-06T07:24:20.194Z,99044.02
2019-03-06T07:27:33.589Z,99049.13
2019-03-06T07:30:47.800Z,99051.50
2019-03-06T07:34:14.315Z,99047.98
2019-03-06T07:37:31.646Z,99055.23
2019-03-06T07:40:55.769Z,99055.55
2019-03-06T07:44:07.272Z,99058.20
2019-03-06T07:47:36.503Z,99045.92
2019-03-06T07:51:02.888Z,99053.72
2019-03-06T07:54:21.025Z,99037.62
2019-03-06T07:57:46.092Z,99038.39
2019-03-06T08:00:52.281Z,99026.14
2019-03-06T08:04:09.935Z,99011.66
2019-03-06T08:07:16.193Z,99011.53
2019-03-06T08:10:23.764Z,99020.50
2019-03-06T08:13:33.687Z,99013.52
2019-03-06T08:17:00.662Z,99002.73
2019-03-06T08:20:20.591Z,99008.70
2019-03-06T08:23:43.578Z,99002.03
2019-03-06T08:26:48.724Z,99004.41
2019-03-06T08:29:53.942Z,98995.40
2019-03-06T08:32:59.147Z,98995.11
2019-03-06T08:36:04.302Z,98990.47
2019-03-06T08:39:20.741Z,98989.09
2019-03-06T08:42:25.979Z,98983.80
2019-03-06T08:45:38.087Z,98989.65
2019-03-06T08:48:51.759Z,98989.09
2019-03-06T08:52:15.842Z,98980.59
2019-03-06T08:55:27.247Z,98972.86
2019-03-06T08:58:54.483Z,98973.63
2019-03-06T09:02:28.009Z,98967.81
2019-03-06T09:05:46.855Z,98968.80
2019-03-06T09:09:13.808Z,98964.27
2019-03-06T09:12:40.816Z,98957.37
2019-03-06T09:16:08.364Z,98958.59
2019-03-06T09:19:38.411Z,98957.77
2019-03-06T09:23:05.297Z,98953.16
2019-03-06T09:26:38.446Z,98953.97
2019-03-06T09:30:01.188Z,98941.91
2019-03-06T09:33:13.987Z,98939.05
2019-03-06T09:36:46.896Z,98932.80
2019-03-06T09:40:09.685Z,98919.09
2019-03-06T09:43:25.770Z,98901.95
2019-03-06T09:46:53.071Z,98899.72
2019-03-06T09:50:23.034Z,98893.75
2019-03-06T09:53:49.966Z,98890.89
2019-03-06T09:57:14.157Z,98878.41
2019-03-06T10:00:29.743Z,98877.70
2019-03-06T10:03:48.175Z,98863.57
2019-03-06T10:07:21.489Z,98858.78
2019-03-06T10:10:47.605Z,98852.69
2019-03-06T10:14:00.112Z,98831.58
2019-03-06T10:17:15.440Z,98836.75
2019-03-06T10:20:25.326Z,98829.98
2019-03-06T10:23:29.088Z,98813.44
2019-03-06T10:26:34.290Z,98814.89
2019-03-06T10:29:39.410Z,98808.86
2019-03-06T10:32:44.662Z,98799.25
2019-03-06T10:35:49.766Z,98803.03
2019-03-06T10:38:54.953Z,98792.36
2019-03-06T10:42:00.482Z,98791.02
2019-03-06T10:45:06.720Z,98792.33
2019-03-06T10:48:11.883Z,98789.09
2019-03-06T10:51:17.029Z,98777.09
2019-03-06T10:54:22.138Z,98765.61
2019-03-06T10:57:27.312Z,98760.89
2019-03-06T11:00:36.274Z,98757.31
2019-03-06T11:03:46.198Z,98749.39
2019-03-06T11:06:51.581Z,98747.55
2019-03-06T11:09:56.807Z,98736.26
2019-03-06T11:13:04.359Z,98737.33
2019-03-06T11:16:10.737Z,98726.81
2019-03-06T11:19:16.089Z,98729.33
2019-03-06T11:22:21.246Z,98724.45
2019-03-06T11:25:27.381Z,98719.66
2019-03-06T11:28:32.895Z,98714.50
2019-03-06T11:31:38.069Z,98711.72
2019-03-06T11:34:43.208Z,98697.80
2019-03-06T11:37:48.399Z,98692.91
2019-03-06T11:40:53.916Z,98690.30
2019-03-06T11:43:59.027Z,98683.22
2019-03-06T11:47:04.283Z,98674.27
2019-03-06T11:50:10.877Z,98670.45
2019-03-06T11:53:16.193Z,98676.39
2019-03-06T11:56:21.417Z,98659.33
2019-03-06T11:59:26.855Z,98649.30
2019-03-06T12:02:32.012Z,98638.95
2019-03-06T12:05:37.893Z,98629.20
2019-03-06T12:08:45.878Z,98619.98
2019-03-06T12:11:50.164Z,98618.87
2019-03-06T12:14:55.327Z,98608.20
2019-03-06T12:18:00.579Z,98597.59
2019-03-06T12:21:05.975Z,98584.94
2019-03-06T12:24:13.107Z,98574.03
2019-03-06T12:27:18.277Z,98555.11
2019-03-06T12:30:23.467Z,98554.92
2019-03-06T12:33:29.354Z,98541.80
2019-03-06T12:36:36.133Z,98543.48
2019-03-06T12:39:41.486Z,98543.74
2019-03-06T12:42:46.556Z,98532.88
2019-03-06T12:46:29.549Z,98525.27
2019-03-06T12:49:34.706Z,98516.75
2019-03-06T12:52:39.867Z,98507.31
2019-03-06T12:55:45.065Z,98499.72
2019-03-06T12:58:50.214Z,98484.94
2019-03-06T13:01:55.507Z,98477.92
2019-03-06T13:05:00.636Z,98473.73
2019-03-06T13:08:06.014Z,98464.86
2019-03-06T13:11:11.823Z,98473.32
2019-03-06T13:14:16.912Z,98463.11
2019-03-06T13:17:25.997Z,98450.33
2019-03-06T13:20:31.257Z,98441.95
2019-03-06T13:23:36.657Z,98431.13
2019-03-06T13:26:41.821Z,98422.94
2019-03-06T13:29:47.018Z,98410.08
2019-03-06T13:33:07.002Z,98412.55
2019-03-06T13:36:12.465Z,98408.72
2019-03-06T13:39:17.737Z,98409.33
2019-03-06T13:42:23.023Z,98392.91
2019-03-06T13:45:28.210Z,98386.38
2019-03-06T13:48:34.423Z,98388.80
2019-03-06T13:51:39.841Z,98381.66
2019-03-06T13:54:45.078Z,98377.55
2019-03-06T13:57:50.309Z,98369.80
2019-03-06T14:00:55.672Z,98373.94
2019-03-06T14:04:00.977Z,98358.55
2019-03-06T14:07:06.086Z,98359.14
2019-03-06T14:10:11.833Z,98358.25
2019-03-06T14:13:17.120Z,98372.86
2019-03-06T14:16:22.269Z,98364.56
2019-03-06T14:19:27.637Z,98362.09
2019-03-06T14:22:32.993Z,98361.02
2019-03-06T14:25:38.192Z,98358.44
2019-03-06T14:28:43.611Z,98349.84
2019-03-06T14:31:48.891Z,98345.17
2019-03-06T14:34:54.054Z,98338.50
2019-03-06T14:37:59.264Z,98339.30
2019-03-06T14:41:04.531Z,98344.12
2019-03-06T14:44:09.742Z,98342.33
2019-03-06T14:47:16.488Z,98342.61
2019-03-06T14:50:21.704Z,98329.61
2019-03-06T14:53:26.851Z,98320.55
2019-03-06T14:56:32.009Z,98317.77
2019-03-06T14:59:37.109Z,98319.64
2019-03-06T15:02:43.268Z,98304.94
2019-03-06T15:05:48.453Z,98304.39
2019-03-06T15:08:53.636Z,98288.28
2019-03-06T15:11:58.913Z,98285.76
2019-03-06T15:15:04.388Z,98281.79
2019-03-06T15:18:10.842Z,98269.86
2019-03-06T15:21:16.293Z,98265.26
2019-03-06T15:24:21.609Z,98263.53
2019-03-06T15:27:27.693Z,98265.58
2019-03-06T15:30:32.841Z,98256.44
2019-03-06T15:33:38.296Z,98258.17
2019-03-06T15:36:43.483Z,98259.28
2019-03-06T15:39:48.976Z,98259.10
2019-03-06T15:42:54.336Z,98250.96
2019-03-06T15:45:59.542Z,98249.34
2019-03-06T15:49:04.717Z,98256.71
2019-03-06T15:52:10.937Z,98250.78
2019-03-06T15:55:16.136Z,98253.30
2019-03-06T15:58:21.251Z,98251.75
2019-03-06T16:01:26.513Z,98257.19
2019-03-06T16:04:31.866Z,98255.06
2019-03-06T16:07:37.036Z,98240.75
2019-03-06T16:10:42.597Z,98229.69
2019-03-06T16:13:47.704Z,98228.33
2019-03-06T16:16:52.999Z,98224.05
2019-03-06T16:19:58.177Z,98225.42
2019-03-06T16:23:03.356Z,98228.40
2019-03-06T16:26:08.594Z,98227.33
2019-03-06T16:29:13.732Z,98221.65
2019-03-06T16:32:19.283Z,98230.58
2019-03-06T16:35:24.800Z,98217.03
2019-03-06T16:38:29.936Z,98227.85
2019-03-06T16:41:35.023Z,98224.30
2019-03-06T16:44:40.275Z,98216.98
2019-03-06T16:47:45.375Z,98210.44
2019-03-06T16:50:50.807Z,98220.17
2019-03-06T16:53:56.973Z,98211.45
2019-03-06T16:57:02.146Z,98211.62
2019-03-06T17:00:27.132Z,98208.02
2019-03-06T17:03:32.912Z,98210.69
2019-03-06T17:06:38.066Z,98212.84
2019-03-06T17:09:43.385Z,98220.50
2019-03-06T17:12:49.149Z,98224.02
2019-03-06T17:15:54.291Z,98224.48
2019-03-06T17:18:59.479Z,98223.09
2019-03-06T17:22:04.725Z,98216.55
2019-03-06T17:25:10.628Z,98210.28
2019-03-06T17:28:15.806Z,98211.33
2019-03-06T17:31:21.095Z,98210.52
2019-03-06T17:34:26.253Z,98206.73
2019-03-06T17:37:31.476Z,98205.59
2019-03-06T17:40:37.061Z,98209.91
2019-03-06T17:43:42.373Z,98216.60
2019-03-06T17:46:47.468Z,98215.50
2019-03-06T17:49:52.624Z,98213.48
2019-03-06T17:52:58.124Z,98222.02
2019-03-06T17:56:03.255Z,98224.32
2019-03-06T17:59:08.452Z,98224.00
2019-03-06T18:02:13.620Z,98219.23
2019-03-06T18:05:19.164Z,98220.88
2019-03-06T18:08:24.445Z,98226.45
2019-03-06T18:11:29.955Z,98225.85
2019-03-06T18:14:35.056Z,98221.48
2019-03-06T18:17:40.570Z,98225.00
2019-03-06T18:20:45.806Z,98227.88
2019-03-06T18:23:52.057Z,98223.25
2019-03-06T18:26:57.283Z,98223.25
2019-03-06T18:30:02.550Z,98227.98
2019-03-06T18:33:09.452Z,98222.70
2019-03-06T18:36:14.575Z,98218.69
2019-03-06T18:39:20.511Z,98220.52
2019-03-06T18:42:25.996Z,98218.66
2019-03-06T18:45:31.155Z,98206.42
2019-03-06T18:48:36.307Z,98200.47
2019-03-06T18:51:41.629Z,98209.33
2019-03-06T18:54:46.792Z,98207.39
2019-03-06T18:57:51.948Z,98188.20
2019-03-06T19:00:58.243Z,98179.31
2019-03-06T19:04:03.515Z,98166.73
2019-03-06T19:07:08.744Z,98166.98
2019-03-06T19:10:15.747Z,98167.44
2019-03-06T19:13:21.014Z,98162.77
2019-03-06T19:16:26.162Z,98156.28
2019-03-06T19:19:31.367Z,98146.80
2019-03-06T19:22:36.538Z,98143.01
2019-03-06T19:25:41.771Z,98147.78
2019-03-06T19:28:46.981Z,98135.17
2019-03-06T19:31:52.460Z,98124.38
2019-03-06T19:34:57.665Z,98137.81
2019-03-06T19:38:02.938Z,98140.45
2019-03-06T19:41:08.146Z,98132.58
2019-03-06T19:44:13.332Z,98125.50
2019-03-06T19:47:18.474Z,98121.70
2019-03-06T19:50:25.478Z,98101.98
2019-03-06T19:53:30.595Z,98091.13
2019-03-06T19:56:35.805Z,98081.36
2019-03-06T19:59:41.059Z,98082.67
2019-03-06T20:02:46.169Z,98088.02
2019-03-06T20:05:51.348Z,98071.04
2019-03-06T20:08:56.619Z,98060.88
2019-03-06T20:12:01.901Z,98058.18
2019-03-06T20:15:07.435Z,98052.50
2019-03-06T20:18:12.782Z,98059.25
2019-03-06T20:21:20.137Z,98059.25
2019-03-06T20:24:25.144Z,98049.17
2019-03-06T20:27:30.342Z,98037.48
2019-03-06T20:30:35.680Z,98036.19
2019-03-06T20:33:40.920Z,98036.89
2019-03-06T20:36:46.041Z,98043.77
2019-03-06T20:39:51.264Z,98047.48
2019-03-06T20:42:56.515Z,98043.44
2019-03-06T20:46:01.688Z,98037.16
2019-03-06T20:49:07.931Z,98024.79
2019-03-06T20:52:14.252Z,98025.42
2019-03-06T20:55:19.390Z,98028.64
2019-03-06T20:58:24.651Z,98024.70
2019-03-06T21:01:29.847Z,98018.36
2019-03-06T21:04:36.117Z,98019.67
2019-03-06T21:07:45.278Z,98027.66
2019-03-06T21:10:49.266Z,98026.78
2019-03-06T21:13:54.473Z,98031.06
2019-03-06T21:16:59.745Z,98040.17
2019-03-06T21:20:07.570Z,98046.28
2019-03-06T21:23:12.823Z,98046.79
2019-03-06T21:26:18.868Z,98055.53
2019-03-06T21:29:24.066Z,98042.89
2019-03-06T21:32:29.255Z,98042.84
2019-03-06T21:35:34.423Z,98041.87
2019-03-06T21:38:41.688Z,98042.89
2019-03-06T21:41:46.479Z,98058.45
2019-03-06T21:44:51.629Z,98059.20
2019-03-06T21:47:57.702Z,98061.69
2019-03-06T21:51:05.269Z,98065.21
2019-03-06T21:54:10.045Z,98061.05
2019-03-06T21:57:15.466Z,98053.48
2019-03-06T22:00:20.967Z,98060.58
2019-03-06T22:03:26.223Z,98054.55
2019-03-06T22:06:31.472Z,98031.36
2019-03-06T22:09:36.704Z,98023.59
2019-03-06T22:12:41.950Z,98005.20
2019-03-06T22:15:47.227Z,97992.65
2019-03-06T22:18:52.414Z,97990.47
2019-03-06T22:21:57.554Z,97975.06
2019-03-06T22:25:02.707Z,97974.55
2019-03-06T22:28:10.480Z,97976.67
2019-03-06T22:31:15.630Z,97983.42
2019-03-06T22:34:20.893Z,97991.88
2019-03-06T22:37:26.170Z,97988.88
2019-03-06T22:40:31.327Z,97983.64
2019-03-06T22:43:36.524Z,97977.48
2019-03-06T22:46:41.678Z,97979.74
2019-03-06T22:49:46.800Z,97961.58
2019-03-06T22:52:51.949Z,97996.41
2019-03-06T22:55:57.071Z,97997.63
2019-03-06T22:59:02.227Z,97997.79
2019-03-06T23:02:07.495Z,97998.02
2019-03-06T23:05:12.692Z,98006.51
2019-03-06T23:08:18.110Z,98006.98
2019-03-06T23:11:24.086Z,98010.00
2019-03-06T23:14:29.267Z,98004.97
2019-03-06T23:17:34.379Z,97998.33
2019-03-06T23:20:39.513Z,97985.12
2019-03-06T23:23:44.755Z,97990.63
2019-03-06T23:26:49.869Z,97967.58
2019-03-06T23:29:55.069Z,97949.20
2019-03-06T23:33:01.417Z,97943.00
2019-03-06T23:36:08.553Z,97924.32
2019-03-06T23:39:13.784Z,97913.76
2019-03-06T23:42:18.943Z,97912.50
2019-03-06T23:45:24.086Z,97908.00
2019-03-06T23:48:29.209Z,97906.29
2019-03-06T23:51:42.578Z,97895.91
2019-03-06T23:54:47.726Z,97898.16
2019-03-06T23:57:52.857Z,97897.25
